Frio — WDI7439 — position and weather

sailwx.info

Track history (hours):
 
Tides and Currents Weather Stations Pressure Air Temp Water Temp Dewpoint Dewpoint Depression Visibility Wind Speed Wind Dir Waves Ship Positions

Frio

Owner: Kirby Inland Marine LP, Houston, TX. More information available from US FCC via Universal Licensing System and Coast Guard Vessel Documentation Center.

Last reported at 2018-Jun-21 05:27 UTC. Time now 2018-Jun-22 05:39 UTC.
Position N 29°33' W 090°25'.

Length 209 m; draft 2.6 m.

Type: . MMSI: 367728740.

Date/timePositionNaut miles runAvg speedWind from/ knotsBaromVisibWave heightAir tempDewpointWater temp
2018-Jun-21 05:27N 29°33' W 090°25'2 3.8
2018-Jun-21 04:59N 29°33' W 090°27'1 2.9
2018-Jun-21 04:30N 29°33' W 090°28'2 4.2
2018-Jun-21 04:00N 29°34' W 090°31'2 4.6
2018-Jun-21 03:30N 29°34' W 090°33'2 4.4
2018-Jun-21 03:00N 29°35' W 090°36'2 4.2
2018-Jun-21 02:30N 29°35' W 090°38'2 4.2
2018-Jun-21 02:00N 29°36' W 090°40'2 4.0
2018-Jun-21 01:30N 29°37' W 090°42'2 3.5
2018-Jun-21 01:00N 29°35' W 090°43'2 3.2
2018-Jun-21 00:30N 29°34' W 090°44'2 4.4
2018-Jun-21 00:00N 29°32' W 090°46'2 4.1
2018-Jun-20 23:29N 29°32' W 090°48'62 3.5
2018-Jun-20 05:52N 29°51' W 091°56'2 4.5
2018-Jun-20 05:30N 29°50' W 091°58'2 4.6
2018-Jun-20 05:00N 29°50' W 092°00'2 4.6
2018-Jun-20 04:30N 29°49' W 092°03'2 4.0
2018-Jun-20 04:00N 29°48' W 092°05'1 2.7
2018-Jun-20 03:30N 29°48' W 092°06'2 3.5
2018-Jun-20 03:00N 29°47' W 092°08'2 4.1
2018-Jun-20 02:30N 29°47' W 092°10'2 3.7
2018-Jun-20 02:00N 29°47' W 092°12'0 0.7
2018-Jun-20 01:30N 29°47' W 092°13'1 2.4
2018-Jun-20 01:00N 29°48' W 092°14'0 0.4
2018-Jun-20 00:30N 29°48' W 092°14'0 0.0
2018-Jun-20 00:00N 29°48' W 092°14'0 0.0
2018-Jun-19 23:30N 29°48' W 092°14'0 0.0
2018-Jun-19 23:00N 29°48' W 092°14'0 0.0
2018-Jun-19 22:30N 29°48' W 092°14'0 0.0
2018-Jun-19 22:00N 29°48' W 092°14'0 0.2
2018-Jun-19 21:30N 29°48' W 092°14'0 0.0
2018-Jun-19 21:00N 29°48' W 092°14'0 0.3
2018-Jun-19 20:30N 29°48' W 092°15'1 1.9
2018-Jun-19 19:59N 29°48' W 092°16'0 0.0
2018-Jun-19 19:30N 29°48' W 092°16'0 0.0
2018-Jun-19 19:00N 29°48' W 092°16'0 0.0
2018-Jun-19 18:30N 29°48' W 092°16'0 0.0
2018-Jun-19 18:00N 29°48' W 092°16'0 0.5
2018-Jun-19 17:30N 29°48' W 092°16'1 1.8
2018-Jun-19 17:00N 29°49' W 092°17'0 0.0
2018-Jun-19 16:30N 29°49' W 092°17'0 0.1
2018-Jun-19 16:00N 29°49' W 092°17'0 0.0
2018-Jun-19 15:30N 29°49' W 092°17'1 1.4
2018-Jun-19 15:00N 29°49' W 092°18'2 3.6
2018-Jun-19 14:30N 29°50' W 092°19'2 4.1
2018-Jun-19 14:00N 29°51' W 092°22'37 4.1
2018-Jun-19 04:46N 29°56' W 093°04'1 4.2
2018-Jun-19 04:30N 29°56' W 093°06'2 3.3
2018-Jun-19 03:59N 29°56' W 093°08'2 1.8
2018-Jun-19 03:07N 29°56' W 093°09'0 4.0
2018-Jun-19 03:00N 29°56' W 093°10'2 4.3
2018-Jun-19 02:29N 29°58' W 093°11'2 3.7
2018-Jun-19 02:00N 29°59' W 093°13'2 3.7
2018-Jun-19 01:30N 30°01' W 093°14'1 3.1
2018-Jun-19 01:00N 30°02' W 093°15'2 3.2
2018-Jun-19 00:30N 30°03' W 093°16'2 3.8
2018-Jun-19 00:00N 30°05' W 093°17'1 1.6
2018-Jun-18 23:30N 30°05' W 093°18'0 0.7
2018-Jun-18 23:00N 30°06' W 093°18'1 1.3
2018-Jun-18 22:30N 30°06' W 093°19'0 0.1
2018-Jun-18 22:00N 30°06' W 093°19'0 0.0
2018-Jun-18 21:29N 30°06' W 093°19'0 0.0
2018-Jun-18 21:00N 30°06' W 093°19'0 0.0
2018-Jun-18 20:30N 30°06' W 093°19'0 0.0
2018-Jun-18 20:00N 30°06' W 093°19'0 0.0
2018-Jun-18 19:30N 30°06' W 093°19'0 0.0
2018-Jun-18 19:00N 30°06' W 093°19'0 0.0
2018-Jun-18 18:30N 30°06' W 093°19'0 0.0
2018-Jun-18 18:00N 30°06' W 093°19'0 0.0
2018-Jun-18 17:29N 30°06' W 093°19'0 0.0
2018-Jun-18 17:00N 30°06' W 093°19'0 0.0
2018-Jun-18 16:30N 30°06' W 093°19'0 0.1
2018-Jun-18 15:59N 30°06' W 093°19'0 0.0
2018-Jun-18 15:30N 30°06' W 093°19'0 0.0
2018-Jun-18 15:00N 30°06' W 093°19'0 0.0
2018-Jun-18 14:30N 30°06' W 093°19'0 0.0
2018-Jun-18 14:00N 30°06' W 093°19'0 0.0
2018-Jun-18 13:30N 30°06' W 093°19'0 0.0
2018-Jun-18 13:00N 30°06' W 093°19'0 0.0
2018-Jun-18 12:30N 30°06' W 093°19'0 0.0
2018-Jun-18 12:00N 30°06' W 093°19'0 0.0
2018-Jun-18 11:30N 30°06' W 093°19'0 0.0
2018-Jun-18 10:59N 30°06' W 093°19'0 0.0
2018-Jun-18 10:30N 30°06' W 093°19'0 0.0
2018-Jun-18 10:00N 30°06' W 093°19'0 0.1
2018-Jun-18 09:30N 30°06' W 093°19'0 0.0
2018-Jun-18 09:00N 30°06' W 093°19'0 0.0
2018-Jun-18 08:30N 30°06' W 093°19'0 0.1
2018-Jun-18 08:00N 30°06' W 093°19'0 0.0
2018-Jun-18 07:30N 30°06' W 093°19'0 0.1
2018-Jun-18 07:00N 30°06' W 093°19'0 0.0
2018-Jun-18 06:30N 30°06' W 093°19'0 0.0
2018-Jun-18 06:00N 30°06' W 093°19'0 0.0
2018-Jun-18 05:30N 30°06' W 093°19'0 0.0
2018-Jun-18 05:00N 30°06' W 093°19'0 0.1
2018-Jun-18 04:30N 30°06' W 093°19'0 0.0
2018-Jun-18 04:00N 30°06' W 093°19'0 0.0
2018-Jun-18 03:30N 30°06' W 093°19'0 0.0
2018-Jun-18 02:59N 30°06' W 093°19'0 0.0
2018-Jun-18 02:30N 30°06' W 093°19'0 0.0
2018-Jun-18 02:00N 30°06' W 093°19'0 0.0
2018-Jun-18 01:30N 30°06' W 093°19'0 0.0
2018-Jun-18 01:00N 30°06' W 093°19'0 0.0
2018-Jun-18 00:30N 30°06' W 093°19'0 0.0
2018-Jun-18 00:00N 30°06' W 093°19'0 0.0
2018-Jun-17 23:30N 30°06' W 093°19'0 0.0
2018-Jun-17 22:59N 30°06' W 093°19'0 0.0
2018-Jun-17 22:30N 30°06' W 093°19'0 0.1
2018-Jun-17 22:00N 30°06' W 093°19'0 0.0
2018-Jun-17 21:30N 30°06' W 093°19'0 0.0
2018-Jun-17 20:59N 30°06' W 093°19'1 1.5
2018-Jun-17 20:30N 30°06' W 093°20'1 1.5
2018-Jun-17 20:00N 30°07' W 093°20'0 0.0
2018-Jun-17 19:30N 30°07' W 093°20'0 0.0
2018-Jun-17 19:00N 30°07' W 093°20'0 0.0
2018-Jun-17 18:30N 30°07' W 093°20'0 0.1
2018-Jun-17 18:00N 30°07' W 093°20'1 2.8
2018-Jun-17 17:30N 30°08' W 093°20'2 3.1
2018-Jun-17 17:00N 30°09' W 093°20'1 2.7
2018-Jun-17 16:30N 30°11' W 093°19'1 2.2
2018-Jun-17 16:00N 30°11' W 093°18'1 1.7
2018-Jun-17 15:28N 30°12' W 093°17'1 1.4
2018-Jun-17 15:00N 30°12' W 093°17'1 1.8
2018-Jun-17 14:30N 30°13' W 093°16'1 1.7
2018-Jun-17 14:00N 30°14' W 093°16'0 0.5
2018-Jun-17 13:30N 30°14' W 093°15'0 0.2
2018-Jun-17 12:55N 30°14' W 093°15'0 0.0
2018-Jun-17 12:24N 30°14' W 093°15'0 0.0
2018-Jun-17 11:58N 30°14' W 093°15'0 0.0
2018-Jun-17 11:26N 30°14' W 093°15'0 0.0
2018-Jun-17 09:39N 30°14' W 093°15'0 0.0
2018-Jun-17 09:21N 30°14' W 093°15'0 0.0
2018-Jun-17 08:51N 30°14' W 093°15'0 0.0
2018-Jun-17 08:21N 30°14' W 093°15'0 0.0
2018-Jun-17 07:51N 30°14' W 093°15'0 0.0
2018-Jun-17 07:15N 30°14' W 093°15'0 0.0
2018-Jun-17 06:57N 30°14' W 093°15'0 0.0
2018-Jun-17 06:27N 30°14' W 093°15'0 0.0
2018-Jun-17 05:57N 30°14' W 093°15'0 0.0
2018-Jun-17 05:27N 30°14' W 093°15'0 0.0
2018-Jun-17 04:57N 30°14' W 093°15'0 0.0
2018-Jun-17 04:30N 30°14' W 093°15'0 0.0
2018-Jun-17 03:57N 30°14' W 093°15'0 0.0
2018-Jun-17 03:21N 30°14' W 093°15'0 0.0
2018-Jun-17 02:03N 30°14' W 093°15'0 0.0
2018-Jun-17 02:00N 30°14' W 093°15'0 0.0
2018-Jun-17 01:30N 30°14' W 093°15'0 0.0
2018-Jun-17 00:57N 30°14' W 093°15'0 0.0
2018-Jun-17 00:30N 30°14' W 093°15'0 0.0
2018-Jun-17 00:00N 30°14' W 093°15'0 0.0
2018-Jun-16 23:30N 30°14' W 093°15'0 0.0
2018-Jun-16 23:00N 30°14' W 093°15'0 0.0
2018-Jun-16 22:30N 30°14' W 093°15'0 0.0
2018-Jun-16 22:00N 30°14' W 093°15'0 0.0
2018-Jun-16 21:30N 30°14' W 093°15'0 0.0
2018-Jun-16 21:00N 30°14' W 093°15'0 0.0
2018-Jun-16 20:30N 30°14' W 093°15'0 0.0
2018-Jun-16 20:00N 30°14' W 093°15'0 0.0
2018-Jun-16 19:30N 30°14' W 093°15'0 0.0
2018-Jun-16 19:00N 30°14' W 093°15'0 0.0
2018-Jun-16 18:30N 30°14' W 093°15'0 0.0
2018-Jun-16 18:00N 30°14' W 093°15'0 0.0
2018-Jun-16 17:27N 30°14' W 093°15'0 0.0
2018-Jun-16 17:00N 30°14' W 093°15'0 0.0
2018-Jun-16 16:27N 30°14' W 093°15'0 0.0
2018-Jun-16 15:54N 30°14' W 093°15'0 0.0
2018-Jun-16 15:30N 30°14' W 093°15'0 0.0
2018-Jun-16 15:00N 30°14' W 093°15'0 0.0
2018-Jun-16 14:30N 30°14' W 093°15'0 0.0
2018-Jun-16 14:00N 30°14' W 093°15'0 0.0
2018-Jun-16 13:30N 30°14' W 093°15'0 0.0
2018-Jun-16 13:00N 30°14' W 093°15'0 0.0
2018-Jun-16 12:30N 30°14' W 093°15'0 0.0
2018-Jun-16 12:00N 30°14' W 093°15'0 0.0
2018-Jun-16 11:27N 30°14' W 093°15'0 0.0
2018-Jun-16 10:54N 30°14' W 093°15'0 0.0
2018-Jun-16 10:28N 30°14' W 093°15'0 0.0
2018-Jun-16 09:59N 30°14' W 093°15'0 0.0
2018-Jun-16 09:30N 30°14' W 093°15'0 0.0
2018-Jun-16 09:00N 30°14' W 093°15'0 0.0
2018-Jun-16 08:20N 30°14' W 093°15'0 0.0
2018-Jun-16 07:57N 30°14' W 093°15'0 0.0
2018-Jun-16 07:30N 30°14' W 093°15'0 0.0
2018-Jun-16 06:58N 30°14' W 093°15'0 0.0
2018-Jun-16 06:29N 30°14' W 093°15'0 0.0
2018-Jun-16 06:01N 30°14' W 093°15'0 0.0
2018-Jun-16 05:30N 30°14' W 093°15'0 0.0
2018-Jun-16 04:59N 30°14' W 093°15'0 0.0
2018-Jun-16 04:29N 30°14' W 093°15'0 0.0
2018-Jun-16 03:59N 30°14' W 093°15'0 0.3
2018-Jun-16 03:31N 30°14' W 093°15'1 1.6
2018-Jun-16 03:01N 30°13' W 093°16'3 5.2
2018-Jun-16 02:30N 30°11' W 093°18'2 4.0
2018-Jun-16 02:01N 30°10' W 093°19'3 5.4
2018-Jun-16 01:30N 30°07' W 093°20'3 5.4
2018-Jun-16 01:01N 30°04' W 093°20'2 3.4
2018-Jun-16 00:30N 30°04' W 093°22'0 0.0
2018-Jun-16 00:00N 30°04' W 093°22'0 0.0
2018-Jun-15 23:28N 30°04' W 093°22'0 0.0
2018-Jun-15 22:58N 30°04' W 093°22'0 0.0
2018-Jun-15 22:28N 30°04' W 093°22'0 0.0
2018-Jun-15 21:58N 30°04' W 093°22'0 0.0
2018-Jun-15 21:28N 30°04' W 093°22'0 0.0
2018-Jun-15 20:58N 30°04' W 093°22'0 0.0
2018-Jun-15 20:28N 30°04' W 093°22'0 0.0
2018-Jun-15 19:58N 30°04' W 093°22'0 0.0
2018-Jun-15 19:28N 30°04' W 093°22'0 0.0
2018-Jun-15 18:58N 30°04' W 093°22'0 0.0
2018-Jun-15 18:28N 30°04' W 093°22'0 0.0
2018-Jun-15 17:58N 30°04' W 093°22'0 0.0
2018-Jun-15 17:28N 30°04' W 093°22'0 0.0
2018-Jun-15 16:58N 30°04' W 093°22'0 0.0
2018-Jun-15 16:28N 30°04' W 093°22'0 0.0
2018-Jun-15 15:58N 30°04' W 093°22'0 0.0
2018-Jun-15 15:28N 30°04' W 093°22'0 0.0
2018-Jun-15 14:58N 30°04' W 093°22'0 0.0
2018-Jun-15 14:28N 30°04' W 093°22'0 0.0
2018-Jun-15 13:58N 30°04' W 093°22'0 0.0
2018-Jun-15 13:28N 30°04' W 093°22'0 0.0
2018-Jun-15 12:58N 30°04' W 093°22'0 0.0
2018-Jun-15 12:28N 30°04' W 093°22'0 0.0
2018-Jun-15 11:58N 30°04' W 093°22'0 0.0
2018-Jun-15 11:28N 30°04' W 093°22'0 0.0
2018-Jun-15 10:58N 30°04' W 093°22'0 0.0
2018-Jun-15 10:28N 30°04' W 093°22'0 0.0
2018-Jun-15 09:58N 30°04' W 093°22'0 0.0
2018-Jun-15 09:28N 30°04' W 093°22'0 0.0
2018-Jun-15 08:55N 30°04' W 093°22'0 0.0
2018-Jun-15 08:28N 30°04' W 093°22'0 0.0
2018-Jun-15 07:58N 30°04' W 093°22'0 0.0
2018-Jun-15 07:28N 30°04' W 093°22'0 0.0
2018-Jun-15 06:58N 30°04' W 093°22'0 0.0
2018-Jun-15 06:25N 30°04' W 093°22'0 0.0
2018-Jun-15 05:58N 30°04' W 093°22'0 0.0
2018-Jun-15 05:28N 30°04' W 093°22'0 0.0
2018-Jun-15 04:58N 30°04' W 093°22'0 0.0
2018-Jun-15 04:28N 30°04' W 093°22'0 0.0
2018-Jun-15 03:58N 30°04' W 093°22'0 0.0
2018-Jun-15 03:28N 30°04' W 093°22'0 0.0
2018-Jun-15 02:58N 30°04' W 093°22'0 0.0
2018-Jun-15 02:28N 30°04' W 093°22'0 0.0
2018-Jun-15 01:58N 30°04' W 093°22'0 0.0
2018-Jun-15 01:30N 30°04' W 093°22'0 0.0
2018-Jun-15 01:00N 30°04' W 093°22'2 3.3
2018-Jun-15 00:30N 30°04' W 093°24'2 4.6
2018-Jun-15 00:00N 30°04' W 093°27'3 5.4
2018-Jun-14 23:30N 30°04' W 093°30'1 1.3
2018-Jun-14 22:58N 30°04' W 093°31'7 5.3
2018-Jun-14 21:36N 30°04' W 093°39'2 5.9
2018-Jun-14 21:11N 30°04' W 093°42'1 5.6
2018-Jun-14 20:57N 30°03' W 093°43'3 5.7
2018-Jun-14 20:29N 30°01' W 093°45'3 5.9
2018-Jun-14 19:59N 29°59' W 093°48'3 6.2
2018-Jun-14 19:30N 29°58' W 093°51'3 6.4
2018-Jun-14 19:00N 29°55' W 093°53'3 6.9
2018-Jun-14 18:30N 29°53' W 093°55'3 6.6
2018-Jun-14 18:00N 29°50' W 093°57'3 5.2
2018-Jun-14 17:30N 29°49' W 093°60'3 5.4
2018-Jun-14 17:00N 29°47' W 094°02'3 5.4
2018-Jun-14 16:30N 29°45' W 094°04'3 5.4
2018-Jun-14 16:00N 29°43' W 094°07'3 5.4
2018-Jun-14 15:30N 29°42' W 094°09'2 4.3
2018-Jun-14 15:00N 29°41' W 094°12'3 4.8
2018-Jun-14 14:26N 29°40' W 094°14'7 5.1
2018-Jun-14 13:05N 29°37' W 094°22'0 5.1
2018-Jun-14 13:00N 29°36' W 094°22'2 4.8
2018-Jun-14 12:30N 29°36' W 094°25'1 2.4
2018-Jun-14 12:00N 29°35' W 094°25'3 3.6
2018-Jun-14 11:15N 29°33' W 094°28'16 4.2
2018-Jun-14 07:26N 29°25' W 094°44'2 5.3
2018-Jun-14 07:00N 29°24' W 094°46'3 5.3
2018-Jun-14 06:30N 29°22' W 094°48'4 7.2
2018-Jun-14 06:00N 29°25' W 094°50'9 8.0
2018-Jun-14 04:50N 29°33' W 094°55'3 7.3
2018-Jun-14 04:26N 29°36' W 094°57'3 7.5
2018-Jun-14 04:00N 29°39' W 094°58'10 4.3
2018-Jun-14 01:40N 29°47' W 095°04'0 0.0
2018-Jun-14 01:30N 29°47' W 095°04'0 0.0
2018-Jun-13 05:30N 29°47' W 095°04'0 0.3
2018-Jun-13 05:00N 29°47' W 095°04'  
Track history (hours):
 
Tides and Currents Weather Stations Pressure Air Temp Water Temp Dewpoint Dewpoint Depression Visibility Wind Speed Wind Dir Waves Ship Positions

Frio

Owner: Kirby Inland Marine LP, Houston, TX. More information available from US FCC via Universal Licensing System and Coast Guard Vessel Documentation Center.

Last reported at 2018-Jun-21 05:27 UTC. Time now 2018-Jun-22 05:39 UTC.
Position N 29°33' W 090°25'.

Length 209 m; draft 2.6 m.

Type: . MMSI: 367728740.

Date/timePositionNaut miles runAvg speedWind from/ knotsBaromVisibWave heightAir tempDewpointWater temp
2018-Jun-21 05:27N 29°33' W 090°25'2 3.8
2018-Jun-21 04:59N 29°33' W 090°27'1 2.9
2018-Jun-21 04:30N 29°33' W 090°28'2 4.2
2018-Jun-21 04:00N 29°34' W 090°31'2 4.6
2018-Jun-21 03:30N 29°34' W 090°33'2 4.4
2018-Jun-21 03:00N 29°35' W 090°36'2 4.2
2018-Jun-21 02:30N 29°35' W 090°38'2 4.2
2018-Jun-21 02:00N 29°36' W 090°40'2 4.0
2018-Jun-21 01:30N 29°37' W 090°42'2 3.5
2018-Jun-21 01:00N 29°35' W 090°43'2 3.2
2018-Jun-21 00:30N 29°34' W 090°44'2 4.4
2018-Jun-21 00:00N 29°32' W 090°46'2 4.1
2018-Jun-20 23:29N 29°32' W 090°48'62 3.5
2018-Jun-20 05:52N 29°51' W 091°56'2 4.5
2018-Jun-20 05:30N 29°50' W 091°58'2 4.6
2018-Jun-20 05:00N 29°50' W 092°00'2 4.6
2018-Jun-20 04:30N 29°49' W 092°03'2 4.0
2018-Jun-20 04:00N 29°48' W 092°05'1 2.7
2018-Jun-20 03:30N 29°48' W 092°06'2 3.5
2018-Jun-20 03:00N 29°47' W 092°08'2 4.1
2018-Jun-20 02:30N 29°47' W 092°10'2 3.7
2018-Jun-20 02:00N 29°47' W 092°12'0 0.7
2018-Jun-20 01:30N 29°47' W 092°13'1 2.4
2018-Jun-20 01:00N 29°48' W 092°14'0 0.4
2018-Jun-20 00:30N 29°48' W 092°14'0 0.0
2018-Jun-20 00:00N 29°48' W 092°14'0 0.0
2018-Jun-19 23:30N 29°48' W 092°14'0 0.0
2018-Jun-19 23:00N 29°48' W 092°14'0 0.0
2018-Jun-19 22:30N 29°48' W 092°14'0 0.0
2018-Jun-19 22:00N 29°48' W 092°14'0 0.2
2018-Jun-19 21:30N 29°48' W 092°14'0 0.0
2018-Jun-19 21:00N 29°48' W 092°14'0 0.3
2018-Jun-19 20:30N 29°48' W 092°15'1 1.9
2018-Jun-19 19:59N 29°48' W 092°16'0 0.0
2018-Jun-19 19:30N 29°48' W 092°16'0 0.0
2018-Jun-19 19:00N 29°48' W 092°16'0 0.0
2018-Jun-19 18:30N 29°48' W 092°16'0 0.0
2018-Jun-19 18:00N 29°48' W 092°16'0 0.5
2018-Jun-19 17:30N 29°48' W 092°16'1 1.8
2018-Jun-19 17:00N 29°49' W 092°17'0 0.0
2018-Jun-19 16:30N 29°49' W 092°17'0 0.1
2018-Jun-19 16:00N 29°49' W 092°17'0 0.0
2018-Jun-19 15:30N 29°49' W 092°17'1 1.4
2018-Jun-19 15:00N 29°49' W 092°18'2 3.6
2018-Jun-19 14:30N 29°50' W 092°19'2 4.1
2018-Jun-19 14:00N 29°51' W 092°22'37 4.1
2018-Jun-19 04:46N 29°56' W 093°04'1 4.2
2018-Jun-19 04:30N 29°56' W 093°06'2 3.3
2018-Jun-19 03:59N 29°56' W 093°08'2 1.8
2018-Jun-19 03:07N 29°56' W 093°09'0 4.0
2018-Jun-19 03:00N 29°56' W 093°10'2 4.3
2018-Jun-19 02:29N 29°58' W 093°11'2 3.7
2018-Jun-19 02:00N 29°59' W 093°13'2 3.7
2018-Jun-19 01:30N 30°01' W 093°14'1 3.1
2018-Jun-19 01:00N 30°02' W 093°15'2 3.2
2018-Jun-19 00:30N 30°03' W 093°16'2 3.8
2018-Jun-19 00:00N 30°05' W 093°17'1 1.6
2018-Jun-18 23:30N 30°05' W 093°18'0 0.7
2018-Jun-18 23:00N 30°06' W 093°18'1 1.3
2018-Jun-18 22:30N 30°06' W 093°19'0 0.1
2018-Jun-18 22:00N 30°06' W 093°19'0 0.0
2018-Jun-18 21:29N 30°06' W 093°19'0 0.0
2018-Jun-18 21:00N 30°06' W 093°19'0 0.0
2018-Jun-18 20:30N 30°06' W 093°19'0 0.0
2018-Jun-18 20:00N 30°06' W 093°19'0 0.0
2018-Jun-18 19:30N 30°06' W 093°19'0 0.0
2018-Jun-18 19:00N 30°06' W 093°19'0 0.0
2018-Jun-18 18:30N 30°06' W 093°19'0 0.0
2018-Jun-18 18:00N 30°06' W 093°19'0 0.0
2018-Jun-18 17:29N 30°06' W 093°19'0 0.0
2018-Jun-18 17:00N 30°06' W 093°19'0 0.0
2018-Jun-18 16:30N 30°06' W 093°19'0 0.1
2018-Jun-18 15:59N 30°06' W 093°19'0 0.0
2018-Jun-18 15:30N 30°06' W 093°19'0 0.0
2018-Jun-18 15:00N 30°06' W 093°19'0 0.0
2018-Jun-18 14:30N 30°06' W 093°19'0 0.0
2018-Jun-18 14:00N 30°06' W 093°19'0 0.0
2018-Jun-18 13:30N 30°06' W 093°19'0 0.0
2018-Jun-18 13:00N 30°06' W 093°19'0 0.0
2018-Jun-18 12:30N 30°06' W 093°19'0 0.0
2018-Jun-18 12:00N 30°06' W 093°19'0 0.0
2018-Jun-18 11:30N 30°06' W 093°19'0 0.0
2018-Jun-18 10:59N 30°06' W 093°19'0 0.0
2018-Jun-18 10:30N 30°06' W 093°19'0 0.0
2018-Jun-18 10:00N 30°06' W 093°19'0 0.1
2018-Jun-18 09:30N 30°06' W 093°19'0 0.0
2018-Jun-18 09:00N 30°06' W 093°19'0 0.0
2018-Jun-18 08:30N 30°06' W 093°19'0 0.1
2018-Jun-18 08:00N 30°06' W 093°19'0 0.0
2018-Jun-18 07:30N 30°06' W 093°19'0 0.1
2018-Jun-18 07:00N 30°06' W 093°19'0 0.0
2018-Jun-18 06:30N 30°06' W 093°19'0 0.0
2018-Jun-18 06:00N 30°06' W 093°19'0 0.0
2018-Jun-18 05:30N 30°06' W 093°19'0 0.0
2018-Jun-18 05:00N 30°06' W 093°19'0 0.1
2018-Jun-18 04:30N 30°06' W 093°19'0 0.0
2018-Jun-18 04:00N 30°06' W 093°19'0 0.0
2018-Jun-18 03:30N 30°06' W 093°19'0 0.0
2018-Jun-18 02:59N 30°06' W 093°19'0 0.0
2018-Jun-18 02:30N 30°06' W 093°19'0 0.0
2018-Jun-18 02:00N 30°06' W 093°19'0 0.0
2018-Jun-18 01:30N 30°06' W 093°19'0 0.0
2018-Jun-18 01:00N 30°06' W 093°19'0 0.0
2018-Jun-18 00:30N 30°06' W 093°19'0 0.0
2018-Jun-18 00:00N 30°06' W 093°19'0 0.0
2018-Jun-17 23:30N 30°06' W 093°19'0 0.0
2018-Jun-17 22:59N 30°06' W 093°19'0 0.0
2018-Jun-17 22:30N 30°06' W 093°19'0 0.1
2018-Jun-17 22:00N 30°06' W 093°19'0 0.0
2018-Jun-17 21:30N 30°06' W 093°19'0 0.0
2018-Jun-17 20:59N 30°06' W 093°19'1 1.5
2018-Jun-17 20:30N 30°06' W 093°20'1 1.5
2018-Jun-17 20:00N 30°07' W 093°20'0 0.0
2018-Jun-17 19:30N 30°07' W 093°20'0 0.0
2018-Jun-17 19:00N 30°07' W 093°20'0 0.0
2018-Jun-17 18:30N 30°07' W 093°20'0 0.1
2018-Jun-17 18:00N 30°07' W 093°20'1 2.8
2018-Jun-17 17:30N 30°08' W 093°20'2 3.1
2018-Jun-17 17:00N 30°09' W 093°20'1 2.7
2018-Jun-17 16:30N 30°11' W 093°19'1 2.2
2018-Jun-17 16:00N 30°11' W 093°18'1 1.7
2018-Jun-17 15:28N 30°12' W 093°17'1 1.4
2018-Jun-17 15:00N 30°12' W 093°17'1 1.8
2018-Jun-17 14:30N 30°13' W 093°16'1 1.7
2018-Jun-17 14:00N 30°14' W 093°16'0 0.5
2018-Jun-17 13:30N 30°14' W 093°15'0 0.2
2018-Jun-17 12:55N 30°14' W 093°15'0 0.0
2018-Jun-17 12:24N 30°14' W 093°15'0 0.0
2018-Jun-17 11:58N 30°14' W 093°15'0 0.0
2018-Jun-17 11:26N 30°14' W 093°15'0 0.0
2018-Jun-17 09:39N 30°14' W 093°15'0 0.0
2018-Jun-17 09:21N 30°14' W 093°15'0 0.0
2018-Jun-17 08:51N 30°14' W 093°15'0 0.0
2018-Jun-17 08:21N 30°14' W 093°15'0 0.0
2018-Jun-17 07:51N 30°14' W 093°15'0 0.0
2018-Jun-17 07:15N 30°14' W 093°15'0 0.0
2018-Jun-17 06:57N 30°14' W 093°15'0 0.0
2018-Jun-17 06:27N 30°14' W 093°15'0 0.0
2018-Jun-17 05:57N 30°14' W 093°15'0 0.0
2018-Jun-17 05:27N 30°14' W 093°15'0 0.0
2018-Jun-17 04:57N 30°14' W 093°15'0 0.0
2018-Jun-17 04:30N 30°14' W 093°15'0 0.0
2018-Jun-17 03:57N 30°14' W 093°15'0 0.0
2018-Jun-17 03:21N 30°14' W 093°15'0 0.0
2018-Jun-17 02:03N 30°14' W 093°15'0 0.0
2018-Jun-17 02:00N 30°14' W 093°15'0 0.0
2018-Jun-17 01:30N 30°14' W 093°15'0 0.0
2018-Jun-17 00:57N 30°14' W 093°15'0 0.0
2018-Jun-17 00:30N 30°14' W 093°15'0 0.0
2018-Jun-17 00:00N 30°14' W 093°15'0 0.0
2018-Jun-16 23:30N 30°14' W 093°15'0 0.0
2018-Jun-16 23:00N 30°14' W 093°15'0 0.0
2018-Jun-16 22:30N 30°14' W 093°15'0 0.0
2018-Jun-16 22:00N 30°14' W 093°15'0 0.0
2018-Jun-16 21:30N 30°14' W 093°15'0 0.0
2018-Jun-16 21:00N 30°14' W 093°15'0 0.0
2018-Jun-16 20:30N 30°14' W 093°15'0 0.0
2018-Jun-16 20:00N 30°14' W 093°15'0 0.0
2018-Jun-16 19:30N 30°14' W 093°15'0 0.0
2018-Jun-16 19:00N 30°14' W 093°15'0 0.0
2018-Jun-16 18:30N 30°14' W 093°15'0 0.0
2018-Jun-16 18:00N 30°14' W 093°15'0 0.0
2018-Jun-16 17:27N 30°14' W 093°15'0 0.0
2018-Jun-16 17:00N 30°14' W 093°15'0 0.0
2018-Jun-16 16:27N 30°14' W 093°15'0 0.0
2018-Jun-16 15:54N 30°14' W 093°15'0 0.0
2018-Jun-16 15:30N 30°14' W 093°15'0 0.0
2018-Jun-16 15:00N 30°14' W 093°15'0 0.0
2018-Jun-16 14:30N 30°14' W 093°15'0 0.0
2018-Jun-16 14:00N 30°14' W 093°15'0 0.0
2018-Jun-16 13:30N 30°14' W 093°15'0 0.0
2018-Jun-16 13:00N 30°14' W 093°15'0 0.0
2018-Jun-16 12:30N 30°14' W 093°15'0 0.0
2018-Jun-16 12:00N 30°14' W 093°15'0 0.0
2018-Jun-16 11:27N 30°14' W 093°15'0 0.0
2018-Jun-16 10:54N 30°14' W 093°15'0 0.0
2018-Jun-16 10:28N 30°14' W 093°15'0 0.0
2018-Jun-16 09:59N 30°14' W 093°15'0 0.0
2018-Jun-16 09:30N 30°14' W 093°15'0 0.0
2018-Jun-16 09:00N 30°14' W 093°15'0 0.0
2018-Jun-16 08:20N 30°14' W 093°15'0 0.0
2018-Jun-16 07:57N 30°14' W 093°15'0 0.0
2018-Jun-16 07:30N 30°14' W 093°15'0 0.0
2018-Jun-16 06:58N 30°14' W 093°15'0 0.0
2018-Jun-16 06:29N 30°14' W 093°15'0 0.0
2018-Jun-16 06:01N 30°14' W 093°15'0 0.0
2018-Jun-16 05:30N 30°14' W 093°15'0 0.0
2018-Jun-16 04:59N 30°14' W 093°15'0 0.0
2018-Jun-16 04:29N 30°14' W 093°15'0 0.0
2018-Jun-16 03:59N 30°14' W 093°15'0 0.3
2018-Jun-16 03:31N 30°14' W 093°15'1 1.6
2018-Jun-16 03:01N 30°13' W 093°16'3 5.2
2018-Jun-16 02:30N 30°11' W 093°18'2 4.0
2018-Jun-16 02:01N 30°10' W 093°19'3 5.4
2018-Jun-16 01:30N 30°07' W 093°20'3 5.4
2018-Jun-16 01:01N 30°04' W 093°20'2 3.4
2018-Jun-16 00:30N 30°04' W 093°22'0 0.0
2018-Jun-16 00:00N 30°04' W 093°22'0 0.0
2018-Jun-15 23:28N 30°04' W 093°22'0 0.0
2018-Jun-15 22:58N 30°04' W 093°22'0 0.0
2018-Jun-15 22:28N 30°04' W 093°22'0 0.0
2018-Jun-15 21:58N 30°04' W 093°22'0 0.0
2018-Jun-15 21:28N 30°04' W 093°22'0 0.0
2018-Jun-15 20:58N 30°04' W 093°22'0 0.0
2018-Jun-15 20:28N 30°04' W 093°22'0 0.0
2018-Jun-15 19:58N 30°04' W 093°22'0 0.0
2018-Jun-15 19:28N 30°04' W 093°22'0 0.0
2018-Jun-15 18:58N 30°04' W 093°22'0 0.0
2018-Jun-15 18:28N 30°04' W 093°22'0 0.0
2018-Jun-15 17:58N 30°04' W 093°22'0 0.0
2018-Jun-15 17:28N 30°04' W 093°22'0 0.0
2018-Jun-15 16:58N 30°04' W 093°22'0 0.0
2018-Jun-15 16:28N 30°04' W 093°22'0 0.0
2018-Jun-15 15:58N 30°04' W 093°22'0 0.0
2018-Jun-15 15:28N 30°04' W 093°22'0 0.0
2018-Jun-15 14:58N 30°04' W 093°22'0 0.0
2018-Jun-15 14:28N 30°04' W 093°22'0 0.0
2018-Jun-15 13:58N 30°04' W 093°22'0 0.0
2018-Jun-15 13:28N 30°04' W 093°22'0 0.0
2018-Jun-15 12:58N 30°04' W 093°22'0 0.0
2018-Jun-15 12:28N 30°04' W 093°22'0 0.0
2018-Jun-15 11:58N 30°04' W 093°22'0 0.0
2018-Jun-15 11:28N 30°04' W 093°22'0 0.0
2018-Jun-15 10:58N 30°04' W 093°22'0 0.0
2018-Jun-15 10:28N 30°04' W 093°22'0 0.0
2018-Jun-15 09:58N 30°04' W 093°22'0 0.0
2018-Jun-15 09:28N 30°04' W 093°22'0 0.0
2018-Jun-15 08:55N 30°04' W 093°22'0 0.0
2018-Jun-15 08:28N 30°04' W 093°22'0 0.0
2018-Jun-15 07:58N 30°04' W 093°22'0 0.0
2018-Jun-15 07:28N 30°04' W 093°22'0 0.0
2018-Jun-15 06:58N 30°04' W 093°22'0 0.0
2018-Jun-15 06:25N 30°04' W 093°22'0 0.0
2018-Jun-15 05:58N 30°04' W 093°22'0 0.0
2018-Jun-15 05:28N 30°04' W 093°22'0 0.0
2018-Jun-15 04:58N 30°04' W 093°22'0 0.0
2018-Jun-15 04:28N 30°04' W 093°22'0 0.0
2018-Jun-15 03:58N 30°04' W 093°22'0 0.0
2018-Jun-15 03:28N 30°04' W 093°22'0 0.0
2018-Jun-15 02:58N 30°04' W 093°22'0 0.0
2018-Jun-15 02:28N 30°04' W 093°22'0 0.0
2018-Jun-15 01:58N 30°04' W 093°22'0 0.0
2018-Jun-15 01:30N 30°04' W 093°22'0 0.0
2018-Jun-15 01:00N 30°04' W 093°22'2 3.3
2018-Jun-15 00:30N 30°04' W 093°24'2 4.6
2018-Jun-15 00:00N 30°04' W 093°27'3 5.4
2018-Jun-14 23:30N 30°04' W 093°30'1 1.3
2018-Jun-14 22:58N 30°04' W 093°31'7 5.3
2018-Jun-14 21:36N 30°04' W 093°39'2 5.9
2018-Jun-14 21:11N 30°04' W 093°42'1 5.6
2018-Jun-14 20:57N 30°03' W 093°43'3 5.7
2018-Jun-14 20:29N 30°01' W 093°45'3 5.9
2018-Jun-14 19:59N 29°59' W 093°48'3 6.2
2018-Jun-14 19:30N 29°58' W 093°51'3 6.4
2018-Jun-14 19:00N 29°55' W 093°53'3 6.9
2018-Jun-14 18:30N 29°53' W 093°55'3 6.6
2018-Jun-14 18:00N 29°50' W 093°57'3 5.2
2018-Jun-14 17:30N 29°49' W 093°60'3 5.4
2018-Jun-14 17:00N 29°47' W 094°02'3 5.4
2018-Jun-14 16:30N 29°45' W 094°04'3 5.4
2018-Jun-14 16:00N 29°43' W 094°07'3 5.4
2018-Jun-14 15:30N 29°42' W 094°09'2 4.3
2018-Jun-14 15:00N 29°41' W 094°12'3 4.8
2018-Jun-14 14:26N 29°40' W 094°14'7 5.1
2018-Jun-14 13:05N 29°37' W 094°22'0 5.1
2018-Jun-14 13:00N 29°36' W 094°22'2 4.8
2018-Jun-14 12:30N 29°36' W 094°25'1 2.4
2018-Jun-14 12:00N 29°35' W 094°25'3 3.6
2018-Jun-14 11:15N 29°33' W 094°28'16 4.2
2018-Jun-14 07:26N 29°25' W 094°44'2 5.3
2018-Jun-14 07:00N 29°24' W 094°46'3 5.3
2018-Jun-14 06:30N 29°22' W 094°48'4 7.2
2018-Jun-14 06:00N 29°25' W 094°50'9 8.0
2018-Jun-14 04:50N 29°33' W 094°55'3 7.3
2018-Jun-14 04:26N 29°36' W 094°57'3 7.5
2018-Jun-14 04:00N 29°39' W 094°58'10 4.3
2018-Jun-14 01:40N 29°47' W 095°04'0 0.0
2018-Jun-14 01:30N 29°47' W 095°04'0 0.0
2018-Jun-13 05:30N 29°47' W 095°04'0 0.3
2018-Jun-13 05:00N 29°47' W 095°04'  

Dump ship's entire track history